This is the latest recevied weather packets stored in our database for station/object KD9YTS-13. If no packets are shown the sender has not sent any weather packets the latest 10 day(s).
| Time | Temp. | Humidity | Pressure | Rain* | Wind** | Luminosity | Snow |
|---|---|---|---|---|---|---|---|
| 1777604184 | 4.44° C | 6% | - | 0 mm | - | - | - |
| 1777602983 | 4.44° C | 6% | - | 0 mm | - | - | - |
| 1777600583 | -17.78° C | 100% | - | 0 mm | - | - | - |
| 1777599383 | -17.78° C | 100% | - | 0 mm | - | - | - |
| 1777598183 | 6.11° C | 5% | - | 0 mm | - | - | - |
| 1777596984 | -17.78° C | 100% | - | 0 mm | - | - | - |
| 1777595782 | -17.78° C | 100% | - | 0 mm | - | - | - |
| 1777594583 | -17.78° C | 100% | - | 0 mm | - | - | - |
| 1777593383 | -17.78° C | 100% | - | 0 mm | - | - | - |
| 1777592182 | 8.33° C | 4% | - | 0 mm | - | - | - |
| 1777590983 | -17.78° C | 100% | - | 0 mm | - | - | - |
| 1777589782 | -17.78° C | 100% | - | 0 mm | - | - | - |
| 1777588583 | -17.78° C | 100% | - | 0 mm | - | - | - |
| 1777587383 | -17.78° C | 100% | - | 0 mm | - | - | - |
| 1777586182 | 8.33° C | 5% | - | 0 mm | - | - | - |
| 1777584983 | 8.33° C | 4% | - | 0 mm | - | - | - |
| 1777583782 | -17.78° C | 100% | - | 0 mm | - | - | - |
| 1777582583 | -17.78° C | 100% | - | 0 mm | - | - | - |
| 1777581385 | -17.78° C | 100% | - | 0 mm | - | - | - |
| 1777580183 | 9.44° C | 4% | - | 0 mm | - | - | - |
| 1777578983 | -17.78° C | 100% | - | 0 mm | - | - | - |
| 1777577783 | -17.78° C | 100% | - | 0 mm | - | - | - |
| 1777576587 | -17.78° C | 100% | - | 0 mm | - | - | - |
| 1777575383 | 8.89° C | 4% | - | 0 mm | - | - | - |
| 1777574183 | 8.33° C | 5% | - | 0 mm | - | - | - |
* Rain latest hour (hover to see other rain measurements)
** Current wind speed in m/s (hover to see current wind gust speed)